sensor_id;sensor_type;location;lat;lon;timestamp;temperature;humidity
53268;DHT22;39156;51.176;6.738;2023-04-03T00:00:23;3.60;68.70
53268;DHT22;39156;51.176;6.738;2023-04-03T00:02:49;3.50;68.70
53268;DHT22;39156;51.176;6.738;2023-04-03T00:05:14;3.50;68.70
53268;DHT22;39156;51.176;6.738;2023-04-03T00:07:40;3.40;68.70
53268;DHT22;39156;51.176;6.738;2023-04-03T00:10:06;3.40;69.40
53268;DHT22;39156;51.176;6.738;2023-04-03T00:12:33;3.40;69.00
53268;DHT22;39156;51.176;6.738;2023-04-03T00:14:58;3.50;69.20
53268;DHT22;39156;51.176;6.738;2023-04-03T00:17:25;3.30;69.20
53268;DHT22;39156;51.176;6.738;2023-04-03T00:19:50;3.30;69.40
53268;DHT22;39156;51.176;6.738;2023-04-03T00:22:16;3.30;69.50
53268;DHT22;39156;51.176;6.738;2023-04-03T00:24:42;3.30;69.60
53268;DHT22;39156;51.176;6.738;2023-04-03T00:27:07;3.30;69.70
53268;DHT22;39156;51.176;6.738;2023-04-03T00:29:33;3.40;70.00
53268;DHT22;39156;51.176;6.738;2023-04-03T00:31:59;3.30;70.00
53268;DHT22;39156;51.176;6.738;2023-04-03T00:34:25;3.40;70.50
53268;DHT22;39156;51.176;6.738;2023-04-03T00:36:50;3.20;70.40
53268;DHT22;39156;51.176;6.738;2023-04-03T00:39:16;3.40;70.70
53268;DHT22;39156;51.176;6.738;2023-04-03T00:41:42;3.30;70.80
53268;DHT22;39156;51.176;6.738;2023-04-03T00:47:12;3.20;71.10
53268;DHT22;39156;51.176;6.738;2023-04-03T00:49:40;3.10;71.00
53268;DHT22;39156;51.176;6.738;2023-04-03T00:52:08;3.10;70.90
53268;DHT22;39156;51.176;6.738;2023-04-03T00:54:40;3.10;71.10
53268;DHT22;39156;51.176;6.738;2023-04-03T00:57:07;3.10;71.10
53268;DHT22;39156;51.176;6.738;2023-04-03T00:59:37;3.10;71.00
53268;DHT22;39156;51.176;6.738;2023-04-03T01:02:05;3.20;71.10
53268;DHT22;39156;51.176;6.738;2023-04-03T01:04:37;3.10;71.00
53268;DHT22;39156;51.176;6.738;2023-04-03T01:07:07;3.10;71.10
53268;DHT22;39156;51.176;6.738;2023-04-03T01:09:41;3.00;71.00
53268;DHT22;39156;51.176;6.738;2023-04-03T01:12:22;3.00;70.90
53268;DHT22;39156;51.176;6.738;2023-04-03T01:14:51;2.90;71.10
53268;DHT22;39156;51.176;6.738;2023-04-03T01:17:38;3.00;71.00
53268;DHT22;39156;51.176;6.738;2023-04-03T01:25:49;3.00;71.10
53268;DHT22;39156;51.176;6.738;2023-04-03T01:28:27;3.00;71.10
53268;DHT22;39156;51.176;6.738;2023-04-03T01:31:25;2.90;71.00
53268;DHT22;39156;51.176;6.738;2023-04-03T01:33:53;3.00;71.10
53268;DHT22;39156;51.176;6.738;2023-04-03T01:36:25;3.00;71.00
53268;DHT22;39156;51.176;6.738;2023-04-03T01:38:54;2.90;71.10
53268;DHT22;39156;51.176;6.738;2023-04-03T01:41:20;3.00;71.10
53268;DHT22;39156;51.176;6.738;2023-04-03T01:43:47;2.80;70.80
53268;DHT22;39156;51.176;6.738;2023-04-03T01:46:14;2.80;70.90
53268;DHT22;39156;51.176;6.738;2023-04-03T01:48:40;3.00;70.90
53268;DHT22;39156;51.176;6.738;2023-04-03T01:51:06;2.90;70.60
53268;DHT22;39156;51.176;6.738;2023-04-03T01:53:32;2.90;70.50
53268;DHT22;39156;51.176;6.738;2023-04-03T01:55:58;2.80;70.50
53268;DHT22;39156;51.176;6.738;2023-04-03T01:58:23;2.80;70.50
53268;DHT22;39156;51.176;6.738;2023-04-03T02:00:50;2.80;70.50
53268;DHT22;39156;51.176;6.738;2023-04-03T02:03:16;2.70;70.40
53268;DHT22;39156;51.176;6.738;2023-04-03T02:05:41;2.80;70.60
53268;DHT22;39156;51.176;6.738;2023-04-03T02:08:07;2.70;70.50
53268;DHT22;39156;51.176;6.738;2023-04-03T02:10:33;2.80;70.50
53268;DHT22;39156;51.176;6.738;2023-04-03T02:12:59;2.60;70.30
53268;DHT22;39156;51.176;6.738;2023-04-03T02:15:24;2.70;70.30
53268;DHT22;39156;51.176;6.738;2023-04-03T02:17:50;2.70;70.30
53268;DHT22;39156;51.176;6.738;2023-04-03T02:20:17;2.60;70.20
53268;DHT22;39156;51.176;6.738;2023-04-03T02:22:43;2.60;70.20
53268;DHT22;39156;51.176;6.738;2023-04-03T02:25:09;2.60;70.00
53268;DHT22;39156;51.176;6.738;2023-04-03T02:27:35;2.60;70.00
53268;DHT22;39156;51.176;6.738;2023-04-03T02:30:02;2.60;70.10
53268;DHT22;39156;51.176;6.738;2023-04-03T02:32:28;2.60;70.00
53268;DHT22;39156;51.176;6.738;2023-04-03T02:34:54;2.60;70.00
53268;DHT22;39156;51.176;6.738;2023-04-03T02:37:20;2.60;70.00
53268;DHT22;39156;51.176;6.738;2023-04-03T02:39:46;2.60;70.20
53268;DHT22;39156;51.176;6.738;2023-04-03T02:42:12;2.80;70.40
53268;DHT22;39156;51.176;6.738;2023-04-03T02:44:37;2.50;70.20
53268;DHT22;39156;51.176;6.738;2023-04-03T02:47:04;2.60;70.20
53268;DHT22;39156;51.176;6.738;2023-04-03T02:49:30;2.60;70.30
53268;DHT22;39156;51.176;6.738;2023-04-03T02:51:56;2.70;70.30
53268;DHT22;39156;51.176;6.738;2023-04-03T02:54:22;2.60;70.40
53268;DHT22;39156;51.176;6.738;2023-04-03T02:56:48;2.60;70.40
53268;DHT22;39156;51.176;6.738;2023-04-03T02:59:15;2.70;70.40
53268;DHT22;39156;51.176;6.738;2023-04-03T03:01:41;2.60;70.30
53268;DHT22;39156;51.176;6.738;2023-04-03T03:04:06;2.60;70.30
53268;DHT22;39156;51.176;6.738;2023-04-03T03:06:32;2.60;70.40
53268;DHT22;39156;51.176;6.738;2023-04-03T03:08:58;2.60;70.30
53268;DHT22;39156;51.176;6.738;2023-04-03T03:11:23;2.50;70.20
53268;DHT22;39156;51.176;6.738;2023-04-03T03:13:50;2.50;70.20
53268;DHT22;39156;51.176;6.738;2023-04-03T03:16:16;2.50;70.30
53268;DHT22;39156;51.176;6.738;2023-04-03T03:18:41;2.50;70.20
53268;DHT22;39156;51.176;6.738;2023-04-03T03:21:09;2.50;70.20
53268;DHT22;39156;51.176;6.738;2023-04-03T03:23:35;2.50;70.30
53268;DHT22;39156;51.176;6.738;2023-04-03T03:26:06;2.50;70.30
53268;DHT22;39156;51.176;6.738;2023-04-03T03:28:33;2.40;70.20
53268;DHT22;39156;51.176;6.738;2023-04-03T03:31:00;2.40;70.30
53268;DHT22;39156;51.176;6.738;2023-04-03T03:33:26;2.40;70.40
53268;DHT22;39156;51.176;6.738;2023-04-03T03:35:55;2.30;70.30
53268;DHT22;39156;51.176;6.738;2023-04-03T03:38:22;2.40;70.40
53268;DHT22;39156;51.176;6.738;2023-04-03T03:40:49;2.40;70.40
53268;DHT22;39156;51.176;6.738;2023-04-03T03:43:16;2.40;70.50
53268;DHT22;39156;51.176;6.738;2023-04-03T03:45:42;2.40;70.50
53268;DHT22;39156;51.176;6.738;2023-04-03T03:48:08;2.30;70.50
53268;DHT22;39156;51.176;6.738;2023-04-03T03:50:34;2.30;70.50
53268;DHT22;39156;51.176;6.738;2023-04-03T03:53:00;2.20;70.40
53268;DHT22;39156;51.176;6.738;2023-04-03T03:55:26;2.20;70.40
53268;DHT22;39156;51.176;6.738;2023-04-03T03:57:52;2.30;70.50
53268;DHT22;39156;51.176;6.738;2023-04-03T04:00:17;2.20;70.60
53268;DHT22;39156;51.176;6.738;2023-04-03T04:02:43;2.10;70.50
53268;DHT22;39156;51.176;6.738;2023-04-03T04:05:09;2.20;70.50
53268;DHT22;39156;51.176;6.738;2023-04-03T04:07:35;2.10;70.50
53268;DHT22;39156;51.176;6.738;2023-04-03T04:10:01;2.10;70.60
53268;DHT22;39156;51.176;6.738;2023-04-03T04:12:27;2.00;70.50
53268;DHT22;39156;51.176;6.738;2023-04-03T04:14:53;2.10;70.60
53268;DHT22;39156;51.176;6.738;2023-04-03T04:17:19;2.00;70.50
53268;DHT22;39156;51.176;6.738;2023-04-03T04:19:45;2.00;70.60
53268;DHT22;39156;51.176;6.738;2023-04-03T04:22:10;2.00;70.60
53268;DHT22;39156;51.176;6.738;2023-04-03T04:24:36;2.00;70.70
53268;DHT22;39156;51.176;6.738;2023-04-03T04:27:02;1.90;70.70
53268;DHT22;39156;51.176;6.738;2023-04-03T04:29:28;2.00;70.80
53268;DHT22;39156;51.176;6.738;2023-04-03T04:31:54;1.90;70.70
53268;DHT22;39156;51.176;6.738;2023-04-03T04:34:20;1.90;70.50
53268;DHT22;39156;51.176;6.738;2023-04-03T04:36:45;1.80;70.90
53268;DHT22;39156;51.176;6.738;2023-04-03T04:39:11;1.80;71.00
53268;DHT22;39156;51.176;6.738;2023-04-03T04:41:37;1.70;71.00
53268;DHT22;39156;51.176;6.738;2023-04-03T04:44:03;1.80;71.10
53268;DHT22;39156;51.176;6.738;2023-04-03T04:46:28;1.80;71.10
53268;DHT22;39156;51.176;6.738;2023-04-03T04:48:54;1.90;71.20
53268;DHT22;39156;51.176;6.738;2023-04-03T04:51:20;1.70;71.10
53268;DHT22;39156;51.176;6.738;2023-04-03T04:53:45;1.70;71.20
53268;DHT22;39156;51.176;6.738;2023-04-03T04:56:11;1.70;71.30
53268;DHT22;39156;51.176;6.738;2023-04-03T04:58:37;1.70;71.30
53268;DHT22;39156;51.176;6.738;2023-04-03T05:01:07;1.60;71.30
53268;DHT22;39156;51.176;6.738;2023-04-03T05:03:34;1.60;71.50
53268;DHT22;39156;51.176;6.738;2023-04-03T05:06:01;1.70;71.50
53268;DHT22;39156;51.176;6.738;2023-04-03T05:08:26;1.70;71.50
53268;DHT22;39156;51.176;6.738;2023-04-03T05:10:52;1.70;71.60
53268;DHT22;39156;51.176;6.738;2023-04-03T05:13:19;1.60;71.50
53268;DHT22;39156;51.176;6.738;2023-04-03T05:15:45;1.60;71.60
53268;DHT22;39156;51.176;6.738;2023-04-03T05:18:11;1.60;71.60
53268;DHT22;39156;51.176;6.738;2023-04-03T05:20:37;1.50;71.50
53268;DHT22;39156;51.176;6.738;2023-04-03T05:23:03;1.60;71.70
53268;DHT22;39156;51.176;6.738;2023-04-03T05:25:29;1.60;71.70
53268;DHT22;39156;51.176;6.738;2023-04-03T05:27:55;1.60;71.70
53268;DHT22;39156;51.176;6.738;2023-04-03T05:30:21;1.60;71.90
53268;DHT22;39156;51.176;6.738;2023-04-03T05:32:47;1.60;71.70
53268;DHT22;39156;51.176;6.738;2023-04-03T05:35:12;1.60;71.70
53268;DHT22;39156;51.176;6.738;2023-04-03T05:37:39;1.50;71.70
53268;DHT22;39156;51.176;6.738;2023-04-03T05:40:06;1.60;71.90
53268;DHT22;39156;51.176;6.738;2023-04-03T05:42:32;1.60;71.80
53268;DHT22;39156;51.176;6.738;2023-04-03T05:44:58;1.60;71.80
53268;DHT22;39156;51.176;6.738;2023-04-03T05:47:24;1.60;71.80
53268;DHT22;39156;51.176;6.738;2023-04-03T05:49:50;1.60;71.80
53268;DHT22;39156;51.176;6.738;2023-04-03T05:52:35;1.60;71.70
53268;DHT22;39156;51.176;6.738;2023-04-03T05:55:02;1.70;71.80
53268;DHT22;39156;51.176;6.738;2023-04-03T05:57:28;1.60;71.60
53268;DHT22;39156;51.176;6.738;2023-04-03T05:59:53;1.60;71.60
53268;DHT22;39156;51.176;6.738;2023-04-03T06:02:21;1.70;71.60
53268;DHT22;39156;51.176;6.738;2023-04-03T06:04:48;1.70;71.60
53268;DHT22;39156;51.176;6.738;2023-04-03T06:07:16;1.90;71.60
53268;DHT22;39156;51.176;6.738;2023-04-03T06:09:48;1.80;71.50
53268;DHT22;39156;51.176;6.738;2023-04-03T06:12:15;1.80;71.60
53268;DHT22;39156;51.176;6.738;2023-04-03T06:14:40;1.80;71.60
53268;DHT22;39156;51.176;6.738;2023-04-03T06:17:06;1.90;71.40
53268;DHT22;39156;51.176;6.738;2023-04-03T06:19:34;1.90;71.40
53268;DHT22;39156;51.176;6.738;2023-04-03T06:22:00;1.80;71.20
53268;DHT22;39156;51.176;6.738;2023-04-03T06:24:26;2.00;71.20
53268;DHT22;39156;51.176;6.738;2023-04-03T06:26:52;2.00;71.20
53268;DHT22;39156;51.176;6.738;2023-04-03T06:29:19;2.00;71.20
53268;DHT22;39156;51.176;6.738;2023-04-03T06:31:46;2.00;71.00
53268;DHT22;39156;51.176;6.738;2023-04-03T06:34:12;2.00;71.00
53268;DHT22;39156;51.176;6.738;2023-04-03T06:36:39;2.10;70.80
53268;DHT22;39156;51.176;6.738;2023-04-03T06:39:05;2.10;70.90
53268;DHT22;39156;51.176;6.738;2023-04-03T06:41:32;2.10;70.90
53268;DHT22;39156;51.176;6.738;2023-04-03T06:43:58;2.10;71.50
53268;DHT22;39156;51.176;6.738;2023-04-03T06:46:25;2.30;73.00
53268;DHT22;39156;51.176;6.738;2023-04-03T06:48:52;2.70;73.60
53268;DHT22;39156;51.176;6.738;2023-04-03T06:53:53;3.60;74.00
53268;DHT22;39156;51.176;6.738;2023-04-03T06:56:21;4.10;71.90
53268;DHT22;39156;51.176;6.738;2023-04-03T06:58:46;4.40;70.50
53268;DHT22;39156;51.176;6.738;2023-04-03T07:01:14;4.70;70.30
53268;DHT22;39156;51.176;6.738;2023-04-03T07:03:42;5.10;69.90
53268;DHT22;39156;51.176;6.738;2023-04-03T07:06:11;5.60;69.40
53268;DHT22;39156;51.176;6.738;2023-04-03T07:08:38;6.00;68.40
53268;DHT22;39156;51.176;6.738;2023-04-03T07:11:05;6.40;67.00
53268;DHT22;39156;51.176;6.738;2023-04-03T07:13:31;6.80;67.50
53268;DHT22;39156;51.176;6.738;2023-04-03T07:15:58;7.30;72.30
53268;DHT22;39156;51.176;6.738;2023-04-03T07:18:24;7.80;67.00
53268;DHT22;39156;51.176;6.738;2023-04-03T07:20:50;8.30;65.30
53268;DHT22;39156;51.176;6.738;2023-04-03T07:23:16;8.80;64.00
53268;DHT22;39156;51.176;6.738;2023-04-03T07:25:47;9.20;61.00
53268;DHT22;39156;51.176;6.738;2023-04-03T07:28:14;9.50;59.90
53268;DHT22;39156;51.176;6.738;2023-04-03T07:30:45;9.80;59.60
53268;DHT22;39156;51.176;6.738;2023-04-03T07:33:16;10.00;58.20
53268;DHT22;39156;51.176;6.738;2023-04-03T07:35:43;10.30;59.20
53268;DHT22;39156;51.176;6.738;2023-04-03T07:38:10;10.60;58.40
53268;DHT22;39156;51.176;6.738;2023-04-03T07:40:36;10.90;62.70
53268;DHT22;39156;51.176;6.738;2023-04-03T07:43:02;11.10;56.90
53268;DHT22;39156;51.176;6.738;2023-04-03T07:45:29;11.30;55.30
53268;DHT22;39156;51.176;6.738;2023-04-03T07:47:55;11.60;55.90
53268;DHT22;39156;51.176;6.738;2023-04-03T07:50:21;11.70;55.90
53268;DHT22;39156;51.176;6.738;2023-04-03T07:52:48;11.90;53.30
53268;DHT22;39156;51.176;6.738;2023-04-03T07:55:14;12.10;52.50
53268;DHT22;39156;51.176;6.738;2023-04-03T07:57:40;12.20;52.20
53268;DHT22;39156;51.176;6.738;2023-04-03T08:00:06;12.40;52.50
53268;DHT22;39156;51.176;6.738;2023-04-03T08:02:34;12.50;50.00
53268;DHT22;39156;51.176;6.738;2023-04-03T08:05:00;12.60;49.30
53268;DHT22;39156;51.176;6.738;2023-04-03T08:07:26;12.70;48.60
53268;DHT22;39156;51.176;6.738;2023-04-03T08:09:52;12.70;48.80
53268;DHT22;39156;51.176;6.738;2023-04-03T08:12:17;12.80;48.60
53268;DHT22;39156;51.176;6.738;2023-04-03T08:14:43;12.90;49.40
53268;DHT22;39156;51.176;6.738;2023-04-03T08:17:09;13.00;49.10
53268;DHT22;39156;51.176;6.738;2023-04-03T08:19:37;13.20;47.90
53268;DHT22;39156;51.176;6.738;2023-04-03T08:22:04;13.30;47.00
53268;DHT22;39156;51.176;6.738;2023-04-03T08:24:31;13.50;47.20
53268;DHT22;39156;51.176;6.738;2023-04-03T08:26:57;13.60;46.00
53268;DHT22;39156;51.176;6.738;2023-04-03T08:29:23;13.70;45.50
53268;DHT22;39156;51.176;6.738;2023-04-03T08:31:49;13.90;44.80
53268;DHT22;39156;51.176;6.738;2023-04-03T08:34:16;14.10;50.10
53268;DHT22;39156;51.176;6.738;2023-04-03T08:36:42;14.20;45.10
53268;DHT22;39156;51.176;6.738;2023-04-03T08:39:08;14.30;42.80
53268;DHT22;39156;51.176;6.738;2023-04-03T08:41:42;14.40;42.70
53268;DHT22;39156;51.176;6.738;2023-04-03T08:44:17;14.50;41.20
53268;DHT22;39156;51.176;6.738;2023-04-03T08:49:42;14.60;41.60
53268;DHT22;39156;51.176;6.738;2023-04-03T08:52:14;14.70;39.90
53268;DHT22;39156;51.176;6.738;2023-04-03T08:54:55;14.70;37.60
53268;DHT22;39156;51.176;6.738;2023-04-03T08:57:30;14.70;37.90
53268;DHT22;39156;51.176;6.738;2023-04-03T08:59:58;14.60;38.20
53268;DHT22;39156;51.176;6.738;2023-04-03T09:02:34;14.50;37.00
53268;DHT22;39156;51.176;6.738;2023-04-03T09:07:53;14.30;37.40
53268;DHT22;39156;51.176;6.738;2023-04-03T09:10:28;14.30;36.40
53268;DHT22;39156;51.176;6.738;2023-04-03T09:13:04;14.20;36.00
53268;DHT22;39156;51.176;6.738;2023-04-03T09:15:32;14.10;37.00
53268;DHT22;39156;51.176;6.738;2023-04-03T09:18:13;14.10;36.60
53268;DHT22;39156;51.176;6.738;2023-04-03T09:21:17;14.20;36.60
53268;DHT22;39156;51.176;6.738;2023-04-03T09:23:50;14.10;36.20
53268;DHT22;39156;51.176;6.738;2023-04-03T09:26:24;13.90;35.50
53268;DHT22;39156;51.176;6.738;2023-04-03T09:28:56;13.80;35.80
53268;DHT22;39156;51.176;6.738;2023-04-03T09:31:27;13.70;36.80
53268;DHT22;39156;51.176;6.738;2023-04-03T09:34:02;13.70;37.10
53268;DHT22;39156;51.176;6.738;2023-04-03T09:36:54;13.70;37.10
53268;DHT22;39156;51.176;6.738;2023-04-03T09:39:25;13.70;38.20
53268;DHT22;39156;51.176;6.738;2023-04-03T09:42:14;13.80;37.60
53268;DHT22;39156;51.176;6.738;2023-04-03T09:44:53;13.90;38.10
53268;DHT22;39156;51.176;6.738;2023-04-03T09:47:30;13.90;36.40
53268;DHT22;39156;51.176;6.738;2023-04-03T09:52:44;14.00;36.20
53268;DHT22;39156;51.176;6.738;2023-04-03T09:58:00;13.90;35.60
53268;DHT22;39156;51.176;6.738;2023-04-03T10:00:32;13.80;36.10
53268;DHT22;39156;51.176;6.738;2023-04-03T10:02:59;13.70;35.80
53268;DHT22;39156;51.176;6.738;2023-04-03T10:08:10;13.60;36.10
53268;DHT22;39156;51.176;6.738;2023-04-03T10:10:47;13.50;35.90
53268;DHT22;39156;51.176;6.738;2023-04-03T10:13:16;13.50;36.20
53268;DHT22;39156;51.176;6.738;2023-04-03T10:18:29;13.30;36.00
53268;DHT22;39156;51.176;6.738;2023-04-03T10:24:33;13.20;36.60
53268;DHT22;39156;51.176;6.738;2023-04-03T10:30:09;13.20;36.40
53268;DHT22;39156;51.176;6.738;2023-04-03T10:36:17;13.20;36.50
53268;DHT22;39156;51.176;6.738;2023-04-03T10:41:38;12.90;35.60
53268;DHT22;39156;51.176;6.738;2023-04-03T10:44:20;12.70;35.90
53268;DHT22;39156;51.176;6.738;2023-04-03T10:46:58;12.50;35.30
53268;DHT22;39156;51.176;6.738;2023-04-03T10:52:54;11.90;34.70
53268;DHT22;39156;51.176;6.738;2023-04-03T10:58:18;11.40;34.70
53268;DHT22;39156;51.176;6.738;2023-04-03T11:00:49;11.10;35.00
53268;DHT22;39156;51.176;6.738;2023-04-03T11:03:30;11.00;35.50
53268;DHT22;39156;51.176;6.738;2023-04-03T11:06:01;10.80;35.70
53268;DHT22;39156;51.176;6.738;2023-04-03T11:08:50;10.60;34.90
53268;DHT22;39156;51.176;6.738;2023-04-03T11:11:25;10.60;36.40
53268;DHT22;39156;51.176;6.738;2023-04-03T11:22:35;10.20;36.20
53268;DHT22;39156;51.176;6.738;2023-04-03T11:25:08;10.20;35.80
53268;DHT22;39156;51.176;6.738;2023-04-03T11:35:52;10.00;36.90
53268;DHT22;39156;51.176;6.738;2023-04-03T11:38:26;10.00;36.60
53268;DHT22;39156;51.176;6.738;2023-04-03T11:40:55;10.00;37.10
53268;DHT22;39156;51.176;6.738;2023-04-03T11:43:28;10.00;36.30
53268;DHT22;39156;51.176;6.738;2023-04-03T11:45:59;10.00;36.40
53268;DHT22;39156;51.176;6.738;2023-04-03T11:53:53;10.10;37.10
53268;DHT22;39156;51.176;6.738;2023-04-03T12:04:21;10.20;35.30
53268;DHT22;39156;51.176;6.738;2023-04-03T12:06:49;10.10;35.00
53268;DHT22;39156;51.176;6.738;2023-04-03T12:09:24;10.20;35.30
53268;DHT22;39156;51.176;6.738;2023-04-03T12:11:51;10.10;34.80
53268;DHT22;39156;51.176;6.738;2023-04-03T12:14:17;10.10;34.80
53268;DHT22;39156;51.176;6.738;2023-04-03T12:16:45;10.10;34.70
53268;DHT22;39156;51.176;6.738;2023-04-03T12:30:12;9.90;35.30
53268;DHT22;39156;51.176;6.738;2023-04-03T12:35:49;10.00;34.40
53268;DHT22;39156;51.176;6.738;2023-04-03T12:38:58;10.00;34.00
53268;DHT22;39156;51.176;6.738;2023-04-03T12:44:37;9.90;34.80
53268;DHT22;39156;51.176;6.738;2023-04-03T12:47:22;10.00;35.00
53268;DHT22;39156;51.176;6.738;2023-04-03T12:49:52;9.90;35.10
53268;DHT22;39156;51.176;6.738;2023-04-03T12:55:02;9.90;35.80
53268;DHT22;39156;51.176;6.738;2023-04-03T12:57:30;9.90;35.80
53268;DHT22;39156;51.176;6.738;2023-04-03T12:59:56;9.90;36.20
53268;DHT22;39156;51.176;6.738;2023-04-03T13:02:24;9.90;36.00
53268;DHT22;39156;51.176;6.738;2023-04-03T13:04:54;9.90;36.30
53268;DHT22;39156;51.176;6.738;2023-04-03T13:07:28;9.90;36.30
53268;DHT22;39156;51.176;6.738;2023-04-03T13:10:00;9.90;36.10
53268;DHT22;39156;51.176;6.738;2023-04-03T13:12:28;9.90;36.20
53268;DHT22;39156;51.176;6.738;2023-04-03T13:14:57;9.80;36.30
53268;DHT22;39156;51.176;6.738;2023-04-03T13:17:30;9.90;36.40
53268;DHT22;39156;51.176;6.738;2023-04-03T13:20:28;9.80;36.20
53268;DHT22;39156;51.176;6.738;2023-04-03T13:23:04;9.80;36.20
53268;DHT22;39156;51.176;6.738;2023-04-03T13:25:33;9.80;36.80
53268;DHT22;39156;51.176;6.738;2023-04-03T13:28:04;9.80;36.80
53268;DHT22;39156;51.176;6.738;2023-04-03T13:30:35;9.80;36.70
53268;DHT22;39156;51.176;6.738;2023-04-03T13:33:05;9.80;36.60
53268;DHT22;39156;51.176;6.738;2023-04-03T13:35:45;9.80;36.20
53268;DHT22;39156;51.176;6.738;2023-04-03T13:40:51;9.80;36.60
53268;DHT22;39156;51.176;6.738;2023-04-03T13:43:22;9.80;36.60
53268;DHT22;39156;51.176;6.738;2023-04-03T13:45:56;9.70;37.10
53268;DHT22;39156;51.176;6.738;2023-04-03T13:48:24;9.60;36.80
53268;DHT22;39156;51.176;6.738;2023-04-03T13:51:03;9.70;36.60
53268;DHT22;39156;51.176;6.738;2023-04-03T13:53:49;9.80;37.50
53268;DHT22;39156;51.176;6.738;2023-04-03T13:56:39;9.70;38.00
53268;DHT22;39156;51.176;6.738;2023-04-03T14:02:32;9.70;37.90
53268;DHT22;39156;51.176;6.738;2023-04-03T14:07:12;9.80;37.60
53268;DHT22;39156;51.176;6.738;2023-04-03T14:09:39;9.80;37.60
53268;DHT22;39156;51.176;6.738;2023-04-03T14:12:08;9.80;37.80
53268;DHT22;39156;51.176;6.738;2023-04-03T14:14:43;9.70;37.50
53268;DHT22;39156;51.176;6.738;2023-04-03T14:17:18;9.60;38.00
53268;DHT22;39156;51.176;6.738;2023-04-03T14:19:46;9.60;38.00
53268;DHT22;39156;51.176;6.738;2023-04-03T14:22:19;9.70;38.10
53268;DHT22;39156;51.176;6.738;2023-04-03T14:24:48;9.60;38.10
53268;DHT22;39156;51.176;6.738;2023-04-03T14:29:49;9.60;38.50
53268;DHT22;39156;51.176;6.738;2023-04-03T14:32:18;9.50;38.40
53268;DHT22;39156;51.176;6.738;2023-04-03T14:34:45;9.40;38.40
53268;DHT22;39156;51.176;6.738;2023-04-03T14:37:22;9.40;38.50
53268;DHT22;39156;51.176;6.738;2023-04-03T14:39:49;9.40;38.40
53268;DHT22;39156;51.176;6.738;2023-04-03T14:42:20;9.30;39.00
53268;DHT22;39156;51.176;6.738;2023-04-03T14:44:48;9.40;39.40
53268;DHT22;39156;51.176;6.738;2023-04-03T14:47:17;9.40;39.40
53268;DHT22;39156;51.176;6.738;2023-04-03T14:49:45;9.40;39.00
53268;DHT22;39156;51.176;6.738;2023-04-03T14:52:27;9.40;39.20
53268;DHT22;39156;51.176;6.738;2023-04-03T14:54:57;9.40;39.30
53268;DHT22;39156;51.176;6.738;2023-04-03T14:57:25;9.30;39.10
53268;DHT22;39156;51.176;6.738;2023-04-03T14:59:52;9.40;39.20
53268;DHT22;39156;51.176;6.738;2023-04-03T15:02:36;9.40;39.20
53268;DHT22;39156;51.176;6.738;2023-04-03T15:05:05;9.30;39.30
53268;DHT22;39156;51.176;6.738;2023-04-03T15:07:38;9.30;39.00
53268;DHT22;39156;51.176;6.738;2023-04-03T15:12:43;9.30;39.80
53268;DHT22;39156;51.176;6.738;2023-04-03T15:15:09;9.30;39.60
53268;DHT22;39156;51.176;6.738;2023-04-03T15:17:36;9.20;39.40
53268;DHT22;39156;51.176;6.738;2023-04-03T15:20:02;9.20;39.70
53268;DHT22;39156;51.176;6.738;2023-04-03T15:22:28;9.30;39.80
53268;DHT22;39156;51.176;6.738;2023-04-03T15:24:54;9.20;39.80
53268;DHT22;39156;51.176;6.738;2023-04-03T15:27:20;9.10;40.00
53268;DHT22;39156;51.176;6.738;2023-04-03T15:29:46;9.10;40.90
53268;DHT22;39156;51.176;6.738;2023-04-03T15:32:12;9.10;40.00
53268;DHT22;39156;51.176;6.738;2023-04-03T15:34:38;9.10;39.90
53268;DHT22;39156;51.176;6.738;2023-04-03T15:37:05;9.10;39.90
53268;DHT22;39156;51.176;6.738;2023-04-03T15:39:31;9.10;40.00
53268;DHT22;39156;51.176;6.738;2023-04-03T15:41:58;9.00;40.10
53268;DHT22;39156;51.176;6.738;2023-04-03T15:44:32;9.00;40.20
53268;DHT22;39156;51.176;6.738;2023-04-03T15:46:59;8.90;40.20
53268;DHT22;39156;51.176;6.738;2023-04-03T15:49:26;8.90;40.20
53268;DHT22;39156;51.176;6.738;2023-04-03T15:51:52;8.90;40.50
53268;DHT22;39156;51.176;6.738;2023-04-03T15:54:18;8.90;40.50
53268;DHT22;39156;51.176;6.738;2023-04-03T15:56:44;8.90;40.40
53268;DHT22;39156;51.176;6.738;2023-04-03T15:59:09;8.90;40.80
53268;DHT22;39156;51.176;6.738;2023-04-03T16:01:36;8.90;40.70
53268;DHT22;39156;51.176;6.738;2023-04-03T16:04:02;8.90;40.70
53268;DHT22;39156;51.176;6.738;2023-04-03T16:06:28;8.90;40.80
53268;DHT22;39156;51.176;6.738;2023-04-03T16:08:56;8.90;40.80
53268;DHT22;39156;51.176;6.738;2023-04-03T16:11:24;8.90;40.90
53268;DHT22;39156;51.176;6.738;2023-04-03T16:13:51;8.90;40.80
53268;DHT22;39156;51.176;6.738;2023-04-03T16:16:17;8.80;40.90
53268;DHT22;39156;51.176;6.738;2023-04-03T16:18:42;8.80;41.10
53268;DHT22;39156;51.176;6.738;2023-04-03T16:21:08;8.80;41.00
53268;DHT22;39156;51.176;6.738;2023-04-03T16:23:34;8.80;40.90
53268;DHT22;39156;51.176;6.738;2023-04-03T16:26:00;8.70;40.80
53268;DHT22;39156;51.176;6.738;2023-04-03T16:28:26;8.80;40.80
53268;DHT22;39156;51.176;6.738;2023-04-03T16:30:52;8.70;41.60
53268;DHT22;39156;51.176;6.738;2023-04-03T16:33:18;8.70;40.90
53268;DHT22;39156;51.176;6.738;2023-04-03T16:35:46;8.60;41.00
53268;DHT22;39156;51.176;6.738;2023-04-03T16:38:13;8.60;40.90
53268;DHT22;39156;51.176;6.738;2023-04-03T16:40:40;8.50;40.80
53268;DHT22;39156;51.176;6.738;2023-04-03T16:43:06;8.50;40.80
53268;DHT22;39156;51.176;6.738;2023-04-03T16:45:32;8.50;41.20
53268;DHT22;39156;51.176;6.738;2023-04-03T16:47:58;8.50;41.10
53268;DHT22;39156;51.176;6.738;2023-04-03T16:50:24;8.40;41.20
53268;DHT22;39156;51.176;6.738;2023-04-03T16:52:50;8.40;41.20
53268;DHT22;39156;51.176;6.738;2023-04-03T16:55:16;8.30;41.40
53268;DHT22;39156;51.176;6.738;2023-04-03T16:57:41;8.20;41.20
53268;DHT22;39156;51.176;6.738;2023-04-03T17:00:08;8.20;41.40
53268;DHT22;39156;51.176;6.738;2023-04-03T17:02:34;8.10;41.90
53268;DHT22;39156;51.176;6.738;2023-04-03T17:04:59;8.10;42.10
53268;DHT22;39156;51.176;6.738;2023-04-03T17:07:25;8.20;42.20
53268;DHT22;39156;51.176;6.738;2023-04-03T17:09:51;8.10;41.80
53268;DHT22;39156;51.176;6.738;2023-04-03T17:12:19;8.00;42.20
53268;DHT22;39156;51.176;6.738;2023-04-03T17:14:45;8.10;42.30
53268;DHT22;39156;51.176;6.738;2023-04-03T17:17:13;8.10;42.30
53268;DHT22;39156;51.176;6.738;2023-04-03T17:19:39;8.00;42.00
53268;DHT22;39156;51.176;6.738;2023-04-03T17:22:07;8.00;42.10
53268;DHT22;39156;51.176;6.738;2023-04-03T17:24:34;7.90;42.60
53268;DHT22;39156;51.176;6.738;2023-04-03T17:27:00;7.90;42.10
53268;DHT22;39156;51.176;6.738;2023-04-03T17:29:26;7.90;42.30
53268;DHT22;39156;51.176;6.738;2023-04-03T17:31:52;7.80;42.30
53268;DHT22;39156;51.176;6.738;2023-04-03T17:34:18;7.70;42.20
53268;DHT22;39156;51.176;6.738;2023-04-03T17:36:43;7.70;42.50
53268;DHT22;39156;51.176;6.738;2023-04-03T17:39:10;7.60;42.70
53268;DHT22;39156;51.176;6.738;2023-04-03T17:41:35;7.50;42.80